sensor_id;sensor_type;location;lat;lon;timestamp;pressure;altitude;pressure_sealevel;temperature;humidity
20455;BME280;10386;54.314;10.022;2024-03-02T00:00:28;101970.63;;;8.81;100.00
20455;BME280;10386;54.314;10.022;2024-03-02T00:02:55;101964.56;;;8.76;100.00
20455;BME280;10386;54.314;10.022;2024-03-02T00:05:22;101958.22;;;8.95;100.00
20455;BME280;10386;54.314;10.022;2024-03-02T00:10:36;101953.06;;;8.89;100.00
20455;BME280;10386;54.314;10.022;2024-03-02T00:13:06;101948.81;;;8.84;100.00
20455;BME280;10386;54.314;10.022;2024-03-02T00:15:47;101943.50;;;9.01;100.00
20455;BME280;10386;54.314;10.022;2024-03-02T00:18:20;101935.28;;;8.84;100.00
20455;BME280;10386;54.314;10.022;2024-03-02T00:20:48;101930.03;;;8.81;100.00
20455;BME280;10386;54.314;10.022;2024-03-02T00:23:16;101921.09;;;8.79;100.00
20455;BME280;10386;54.314;10.022;2024-03-02T00:25:49;101925.97;;;8.71;100.00
20455;BME280;10386;54.314;10.022;2024-03-02T00:28:26;101904.09;;;8.75;100.00
20455;BME280;10386;54.314;10.022;2024-03-02T00:33:36;101903.31;;;8.92;100.00
20455;BME280;10386;54.314;10.022;2024-03-02T00:36:04;101892.47;;;8.92;100.00
20455;BME280;10386;54.314;10.022;2024-03-02T00:38:32;101889.91;;;8.89;100.00
20455;BME280;10386;54.314;10.022;2024-03-02T00:41:04;101890.72;;;8.91;100.00
20455;BME280;10386;54.314;10.022;2024-03-02T00:43:56;101888.97;;;8.90;100.00
20455;BME280;10386;54.314;10.022;2024-03-02T00:46:24;101886.41;;;8.87;100.00
20455;BME280;10386;54.314;10.022;2024-03-02T00:48:56;101876.38;;;8.89;100.00
20455;BME280;10386;54.314;10.022;2024-03-02T00:51:25;101881.50;;;8.95;100.00
20455;BME280;10386;54.314;10.022;2024-03-02T00:53:52;101872.28;;;8.99;100.00
20455;BME280;10386;54.314;10.022;2024-03-02T00:56:23;101878.13;;;8.90;100.00
20455;BME280;10386;54.314;10.022;2024-03-02T00:58:50;101869.84;;;8.93;100.00
20455;BME280;10386;54.314;10.022;2024-03-02T01:01:18;101871.81;;;8.89;100.00
20455;BME280;10386;54.314;10.022;2024-03-02T01:03:46;101868.25;;;8.89;100.00
20455;BME280;10386;54.314;10.022;2024-03-02T01:06:14;101867.78;;;8.79;100.00
20455;BME280;10386;54.314;10.022;2024-03-02T01:08:41;101861.56;;;8.77;100.00
20455;BME280;10386;54.314;10.022;2024-03-02T01:11:09;101867.59;;;8.84;100.00
20455;BME280;10386;54.314;10.022;2024-03-02T01:13:36;101860.28;;;8.86;100.00
20455;BME280;10386;54.314;10.022;2024-03-02T01:16:02;101853.97;;;8.85;100.00
20455;BME280;10386;54.314;10.022;2024-03-02T01:18:30;101858.66;;;8.82;100.00
20455;BME280;10386;54.314;10.022;2024-03-02T01:20:57;101860.47;;;8.81;100.00
20455;BME280;10386;54.314;10.022;2024-03-02T01:23:25;101861.28;;;8.83;100.00
20455;BME280;10386;54.314;10.022;2024-03-02T01:25:52;101861.66;;;8.76;100.00
20455;BME280;10386;54.314;10.022;2024-03-02T01:28:19;101864.28;;;8.77;100.00
20455;BME280;10386;54.314;10.022;2024-03-02T01:30:48;101858.66;;;8.82;100.00
20455;BME280;10386;54.314;10.022;2024-03-02T01:33:16;101859.53;;;8.82;100.00
20455;BME280;10386;54.314;10.022;2024-03-02T01:35:43;101860.34;;;8.84;100.00
20455;BME280;10386;54.314;10.022;2024-03-02T01:38:10;101859.19;;;8.90;100.00
20455;BME280;10386;54.314;10.022;2024-03-02T01:40:38;101852.22;;;8.84;100.00
20455;BME280;10386;54.314;10.022;2024-03-02T01:43:08;101842.72;;;8.76;100.00
20455;BME280;10386;54.314;10.022;2024-03-02T01:45:35;101846.22;;;8.78;100.00
20455;BME280;10386;54.314;10.022;2024-03-02T01:48:06;101845.22;;;8.62;100.00
20455;BME280;10386;54.314;10.022;2024-03-02T01:50:34;101840.44;;;8.67;100.00
20455;BME280;10386;54.314;10.022;2024-03-02T01:53:01;101847.09;;;8.60;100.00
20455;BME280;10386;54.314;10.022;2024-03-02T01:55:32;101847.97;;;8.60;100.00
20455;BME280;10386;54.314;10.022;2024-03-02T01:58:01;101835.81;;;8.50;100.00
20455;BME280;10386;54.314;10.022;2024-03-02T02:00:28;101830.06;;;8.58;100.00
20455;BME280;10386;54.314;10.022;2024-03-02T02:02:55;101818.69;;;8.50;100.00
20455;BME280;10386;54.314;10.022;2024-03-02T02:05:22;101818.28;;;8.59;100.00
20455;BME280;10386;54.314;10.022;2024-03-02T02:07:49;101808.75;;;8.50;100.00
20455;BME280;10386;54.314;10.022;2024-03-02T02:10:16;101805.53;;;8.42;100.00
20455;BME280;10386;54.314;10.022;2024-03-02T02:12:44;101809.75;;;8.48;100.00
20455;BME280;10386;54.314;10.022;2024-03-02T02:15:28;101791.06;;;8.43;100.00
20455;BME280;10386;54.314;10.022;2024-03-02T02:17:57;101770.13;;;8.47;100.00
20455;BME280;10386;54.314;10.022;2024-03-02T02:20:24;101768.50;;;8.43;100.00
20455;BME280;10386;54.314;10.022;2024-03-02T02:23:04;101759.38;;;8.45;100.00
20455;BME280;10386;54.314;10.022;2024-03-02T02:25:36;101749.66;;;8.41;100.00
20455;BME280;10386;54.314;10.022;2024-03-02T02:28:03;101733.94;;;8.31;100.00
20455;BME280;10386;54.314;10.022;2024-03-02T02:30:32;101721.81;;;8.39;100.00
20455;BME280;10386;54.314;10.022;2024-03-02T02:32:59;101705.22;;;8.28;100.00
20455;BME280;10386;54.314;10.022;2024-03-02T02:35:26;101702.41;;;8.30;100.00
20455;BME280;10386;54.314;10.022;2024-03-02T02:37:54;101688.47;;;8.21;100.00
20455;BME280;10386;54.314;10.022;2024-03-02T02:40:22;101679.25;;;8.24;100.00
20455;BME280;10386;54.314;10.022;2024-03-02T02:42:49;101672.91;;;8.25;100.00
20455;BME280;10386;54.314;10.022;2024-03-02T02:45:17;101656.72;;;8.24;100.00
20455;BME280;10386;54.314;10.022;2024-03-02T02:47:44;101657.84;;;8.20;100.00
20455;BME280;10386;54.314;10.022;2024-03-02T02:50:12;101643.56;;;8.17;100.00
20455;BME280;10386;54.314;10.022;2024-03-02T02:52:40;101637.66;;;8.09;100.00
20455;BME280;10386;54.314;10.022;2024-03-02T02:55:09;101626.16;;;8.22;100.00
20455;BME280;10386;54.314;10.022;2024-03-02T02:57:38;101620.22;;;8.14;100.00
20455;BME280;10386;54.314;10.022;2024-03-02T03:00:13;101600.06;;;8.21;100.00
20455;BME280;10386;54.314;10.022;2024-03-02T03:02:45;101596.56;;;8.19;100.00
20455;BME280;10386;54.314;10.022;2024-03-02T03:05:15;101589.09;;;8.24;100.00
20455;BME280;10386;54.314;10.022;2024-03-02T03:07:42;101586.72;;;8.18;100.00
20455;BME280;10386;54.314;10.022;2024-03-02T03:10:11;101574.19;;;8.16;100.00
20455;BME280;10386;54.314;10.022;2024-03-02T03:12:38;101570.91;;;8.09;100.00
20455;BME280;10386;54.314;10.022;2024-03-02T03:15:08;101562.94;;;8.06;100.00
20455;BME280;10386;54.314;10.022;2024-03-02T03:17:36;101562.94;;;8.06;100.00
20455;BME280;10386;54.314;10.022;2024-03-02T03:20:05;101556.59;;;8.07;100.00
20455;BME280;10386;54.314;10.022;2024-03-02T03:22:33;101540.41;;;8.06;100.00
20455;BME280;10386;54.314;10.022;2024-03-02T03:25:03;101513.78;;;7.98;100.00
20455;BME280;10386;54.314;10.022;2024-03-02T03:27:30;101616.44;;;8.00;100.00
20455;BME280;10386;54.314;10.022;2024-03-02T03:30:07;101618.56;;;7.93;100.00
20455;BME280;10386;54.314;10.022;2024-03-02T03:32:36;101615.41;;;8.02;100.00
20455;BME280;10386;54.314;10.022;2024-03-02T03:35:05;101604.47;;;8.05;100.00
20455;BME280;10386;54.314;10.022;2024-03-02T03:37:33;101603.81;;;8.00;100.00
20455;BME280;10386;54.314;10.022;2024-03-02T03:40:05;101596.50;;;8.02;100.00
20455;BME280;10386;54.314;10.022;2024-03-02T03:42:37;101587.72;;;7.97;100.00
20455;BME280;10386;54.314;10.022;2024-03-02T03:45:06;101578.97;;;7.92;100.00
20455;BME280;10386;54.314;10.022;2024-03-02T03:47:34;101578.31;;;7.87;100.00
20455;BME280;10386;54.314;10.022;2024-03-02T03:50:01;101574.00;;;7.83;100.00
20455;BME280;10386;54.314;10.022;2024-03-02T03:52:32;101568.81;;;7.79;100.00
20455;BME280;10386;54.314;10.022;2024-03-02T03:55:00;101555.66;;;7.90;100.00
20455;BME280;10386;54.314;10.022;2024-03-02T03:57:27;101547.53;;;7.90;100.00
20455;BME280;10386;54.314;10.022;2024-03-02T03:59:54;101545.88;;;7.87;100.00
20455;BME280;10386;54.314;10.022;2024-03-02T04:02:21;101536.66;;;7.91;100.00
20455;BME280;10386;54.314;10.022;2024-03-02T04:04:48;101539.72;;;7.84;100.00
20455;BME280;10386;54.314;10.022;2024-03-02T04:07:15;101524.47;;;7.83;100.00
20455;BME280;10386;54.314;10.022;2024-03-02T04:09:42;101528.34;;;7.77;100.00
20455;BME280;10386;54.314;10.022;2024-03-02T04:12:09;101527.25;;;7.81;100.00
20455;BME280;10386;54.314;10.022;2024-03-02T04:14:37;101514.75;;;7.79;100.00
20455;BME280;10386;54.314;10.022;2024-03-02T04:17:04;101513.16;;;7.75;100.00
20455;BME280;10386;54.314;10.022;2024-03-02T04:19:32;101508.41;;;7.80;100.00
20455;BME280;10386;54.314;10.022;2024-03-02T04:22:00;101508.94;;;7.69;100.00
20455;BME280;10386;54.314;10.022;2024-03-02T04:24:41;101514.03;;;7.75;100.00
20455;BME280;10386;54.314;10.022;2024-03-02T04:27:08;101507.44;;;7.81;100.00
20455;BME280;10386;54.314;10.022;2024-03-02T04:29:35;101501.25;;;7.79;100.00
20455;BME280;10386;54.314;10.022;2024-03-02T04:32:02;101489.41;;;7.81;100.00
20455;BME280;10386;54.314;10.022;2024-03-02T04:34:30;101497.53;;;7.81;100.00
20455;BME280;10386;54.314;10.022;2024-03-02T04:36:57;101486.72;;;7.81;100.00
20455;BME280;10386;54.314;10.022;2024-03-02T04:39:24;101478.59;;;7.81;100.00
20455;BME280;10386;54.314;10.022;2024-03-02T04:41:54;101480.50;;;7.79;100.00
20455;BME280;10386;54.314;10.022;2024-03-02T04:44:20;101478.50;;;7.83;100.00
20455;BME280;10386;54.314;10.022;2024-03-02T04:46:48;101476.59;;;7.85;100.00
20455;BME280;10386;54.314;10.022;2024-03-02T04:49:15;101470.41;;;7.83;100.00
20455;BME280;10386;54.314;10.022;2024-03-02T04:51:42;101459.53;;;7.84;100.00
20455;BME280;10386;54.314;10.022;2024-03-02T04:54:09;101463.03;;;7.86;100.00
20455;BME280;10386;54.314;10.022;2024-03-02T04:56:36;101459.84;;;7.78;100.00
20455;BME280;10386;54.314;10.022;2024-03-02T04:59:17;101458.25;;;7.74;100.00
20455;BME280;10386;54.314;10.022;2024-03-02T05:01:45;101453.53;;;7.78;100.00
20455;BME280;10386;54.314;10.022;2024-03-02T05:04:14;101446.38;;;7.77;100.00
20455;BME280;10386;54.314;10.022;2024-03-02T05:06:41;101444.78;;;7.73;100.00
20455;BME280;10386;54.314;10.022;2024-03-02T05:09:08;101434.00;;;7.90;100.00
20455;BME280;10386;54.314;10.022;2024-03-02T05:11:35;101433.28;;;7.86;100.00
20455;BME280;10386;54.314;10.022;2024-03-02T05:14:06;101426.81;;;7.72;100.00
20455;BME280;10386;54.314;10.022;2024-03-02T05:16:34;101426.34;;;7.81;100.00
20455;BME280;10386;54.314;10.022;2024-03-02T05:19:01;101421.19;;;7.76;100.00
20455;BME280;10386;54.314;10.022;2024-03-02T05:21:28;101415.78;;;7.76;100.00
20455;BME280;10386;54.314;10.022;2024-03-02T05:23:55;101425.22;;;7.68;100.00
20455;BME280;10386;54.314;10.022;2024-03-02T05:26:22;101414.53;;;7.83;100.00
20455;BME280;10386;54.314;10.022;2024-03-02T05:28:48;101419.44;;;7.75;100.00
20455;BME280;10386;54.314;10.022;2024-03-02T05:31:15;101436.84;;;7.70;100.00
20455;BME280;10386;54.314;10.022;2024-03-02T05:33:43;101440.22;;;7.56;100.00
20455;BME280;10386;54.314;10.022;2024-03-02T05:36:10;101438.25;;;7.60;100.00
20455;BME280;10386;54.314;10.022;2024-03-02T05:38:37;101436.84;;;7.51;100.00
20455;BME280;10386;54.314;10.022;2024-03-02T05:41:04;101437.97;;;7.47;100.00
20455;BME280;10386;54.314;10.022;2024-03-02T05:43:31;101436.34;;;7.43;100.00
20455;BME280;10386;54.314;10.022;2024-03-02T05:45:58;101441.06;;;7.40;100.00
20455;BME280;10386;54.314;10.022;2024-03-02T05:48:25;101430.81;;;7.46;100.00
20455;BME280;10386;54.314;10.022;2024-03-02T05:50:52;101431.41;;;7.53;100.00
20455;BME280;10386;54.314;10.022;2024-03-02T05:53:19;101433.16;;;7.54;100.00
20455;BME280;10386;54.314;10.022;2024-03-02T05:55:46;101436.84;;;7.51;100.00
20455;BME280;10386;54.314;10.022;2024-03-02T05:58:13;101439.50;;;7.53;100.00
20455;BME280;10386;54.314;10.022;2024-03-02T06:00:59;101443.41;;;7.64;100.00
20455;BME280;10386;54.314;10.022;2024-03-02T06:03:26;101437.34;;;7.59;100.00
20455;BME280;10386;54.314;10.022;2024-03-02T06:05:55;101433.97;;;7.73;100.00
20455;BME280;10386;54.314;10.022;2024-03-02T06:08:22;101431.78;;;7.62;100.00
20455;BME280;10386;54.314;10.022;2024-03-02T06:10:49;101420.44;;;7.56;100.00
20455;BME280;10386;54.314;10.022;2024-03-02T06:13:15;101421.88;;;7.63;100.00
20455;BME280;10386;54.314;10.022;2024-03-02T06:15:43;101425.38;;;7.65;100.00
20455;BME280;10386;54.314;10.022;2024-03-02T06:18:10;101423.25;;;7.71;100.00
20455;BME280;10386;54.314;10.022;2024-03-02T06:20:37;101438.94;;;7.63;100.00
20455;BME280;10386;54.314;10.022;2024-03-02T06:23:04;101434.44;;;7.64;100.00
20455;BME280;10386;54.314;10.022;2024-03-02T06:25:31;101437.94;;;7.66;100.00
20455;BME280;10386;54.314;10.022;2024-03-02T06:27:58;101431.53;;;7.68;100.00
20455;BME280;10386;54.314;10.022;2024-03-02T06:30:26;101431.94;;;7.59;100.00
20455;BME280;10386;54.314;10.022;2024-03-02T06:32:54;101430.03;;;7.61;100.00
20455;BME280;10386;54.314;10.022;2024-03-02T06:35:21;101424.06;;;7.73;100.00
20455;BME280;10386;54.314;10.022;2024-03-02T06:37:48;101419.69;;;7.88;100.00
20455;BME280;10386;54.314;10.022;2024-03-02T06:40:16;101415.63;;;7.79;100.00
20455;BME280;10386;54.314;10.022;2024-03-02T06:42:43;101423.09;;;7.74;100.00
20455;BME280;10386;54.314;10.022;2024-03-02T06:45:10;101426.28;;;7.82;100.00
20455;BME280;10386;54.314;10.022;2024-03-02T06:47:38;101423.75;;;7.79;100.00
20455;BME280;10386;54.314;10.022;2024-03-02T06:50:06;101417.59;;;7.76;100.00
20455;BME280;10386;54.314;10.022;2024-03-02T06:52:34;101425.19;;;7.86;100.00
20455;BME280;10386;54.314;10.022;2024-03-02T06:55:01;101421.53;;;7.87;100.00
20455;BME280;10386;54.314;10.022;2024-03-02T06:57:28;101429.81;;;8.01;100.00
20455;BME280;10386;54.314;10.022;2024-03-02T06:59:56;101434.72;;;7.93;100.00
20455;BME280;10386;54.314;10.022;2024-03-02T07:02:25;101434.41;;;7.99;100.00
20455;BME280;10386;54.314;10.022;2024-03-02T07:04:54;101430.66;;;8.02;100.00
20455;BME280;10386;54.314;10.022;2024-03-02T07:07:21;101420.44;;;8.08;100.00
20455;BME280;10386;54.314;10.022;2024-03-02T07:09:48;101423.31;;;8.22;100.00
20455;BME280;10386;54.314;10.022;2024-03-02T07:12:15;101420.44;;;8.25;100.00
20455;BME280;10386;54.314;10.022;2024-03-02T07:14:42;101419.31;;;8.12;100.00
20455;BME280;10386;54.314;10.022;2024-03-02T07:17:31;101427.94;;;8.20;100.00
20455;BME280;10386;54.314;10.022;2024-03-02T07:19:59;101441.41;;;8.22;100.00
20455;BME280;10386;54.314;10.022;2024-03-02T07:22:26;101443.03;;;8.24;100.00
20455;BME280;10386;54.314;10.022;2024-03-02T07:24:53;101439.31;;;8.26;100.00
20455;BME280;10386;54.314;10.022;2024-03-02T07:27:21;101452.38;;;8.19;100.00
20455;BME280;10386;54.314;10.022;2024-03-02T07:29:48;101451.16;;;8.24;100.00
20455;BME280;10386;54.314;10.022;2024-03-02T07:32:16;101462.44;;;8.32;100.00
20455;BME280;10386;54.314;10.022;2024-03-02T07:34:44;101461.50;;;8.33;100.00
20455;BME280;10386;54.314;10.022;2024-03-02T07:37:13;101475.50;;;8.24;100.00
20455;BME280;10386;54.314;10.022;2024-03-02T07:39:44;101472.88;;;8.39;100.00
20455;BME280;10386;54.314;10.022;2024-03-02T07:42:11;101477.25;;;8.42;100.00
20455;BME280;10386;54.314;10.022;2024-03-02T07:44:39;101474.38;;;8.45;100.00
20455;BME280;10386;54.314;10.022;2024-03-02T07:47:07;101472.03;;;8.56;100.00
20455;BME280;10386;54.314;10.022;2024-03-02T07:49:35;101473.78;;;8.57;100.00
20455;BME280;10386;54.314;10.022;2024-03-02T07:52:02;101486.56;;;8.53;100.00
20455;BME280;10386;54.314;10.022;2024-03-02T07:54:29;101496.19;;;8.42;100.00
20455;BME280;10386;54.314;10.022;2024-03-02T07:56:56;101506.16;;;8.58;100.00
20455;BME280;10386;54.314;10.022;2024-03-02T07:59:23;101504.97;;;8.64;100.00
20455;BME280;10386;54.314;10.022;2024-03-02T08:01:50;101504.53;;;8.71;100.00
20455;BME280;10386;54.314;10.022;2024-03-02T08:04:18;101517.22;;;8.71;100.00
20455;BME280;10386;54.314;10.022;2024-03-02T08:06:45;101529.31;;;8.81;100.00
20455;BME280;10386;54.314;10.022;2024-03-02T08:09:12;101533.28;;;8.91;100.00
20455;BME280;10386;54.314;10.022;2024-03-02T08:11:39;101549.59;;;8.89;100.00
20455;BME280;10386;54.314;10.022;2024-03-02T08:14:06;101560.59;;;9.03;100.00
20455;BME280;10386;54.314;10.022;2024-03-02T08:16:32;101577.78;;;9.02;100.00
20455;BME280;10386;54.314;10.022;2024-03-02T08:19:00;101593.63;;;9.10;100.00
20455;BME280;10386;54.314;10.022;2024-03-02T08:21:27;101599.44;;;9.19;100.00
20455;BME280;10386;54.314;10.022;2024-03-02T08:23:57;101613.84;;;9.20;100.00
20455;BME280;10386;54.314;10.022;2024-03-02T08:26:25;101614.34;;;9.11;100.00
20455;BME280;10386;54.314;10.022;2024-03-02T08:28:52;101612.66;;;9.25;100.00
20455;BME280;10386;54.314;10.022;2024-03-02T08:31:19;101634.03;;;9.14;100.00
20455;BME280;10386;54.314;10.022;2024-03-02T08:33:46;101647.47;;;9.16;100.00
20455;BME280;10386;54.314;10.022;2024-03-02T08:36:13;101654.31;;;9.23;100.00
20455;BME280;10386;54.314;10.022;2024-03-02T08:38:39;101658.00;;;9.39;100.00
20455;BME280;10386;54.314;10.022;2024-03-02T08:41:07;101669.13;;;9.33;100.00
20455;BME280;10386;54.314;10.022;2024-03-02T08:43:34;101681.66;;;9.35;100.00
20455;BME280;10386;54.314;10.022;2024-03-02T08:46:01;101689.41;;;9.43;100.00
20455;BME280;10386;54.314;10.022;2024-03-02T08:48:28;101711.47;;;9.35;100.00
20455;BME280;10386;54.314;10.022;2024-03-02T08:50:55;101716.06;;;9.50;100.00
20455;BME280;10386;54.314;10.022;2024-03-02T08:53:22;101723.81;;;9.57;100.00
20455;BME280;10386;54.314;10.022;2024-03-02T08:55:49;101739.13;;;9.58;100.00
20455;BME280;10386;54.314;10.022;2024-03-02T08:58:16;101654.59;;;9.67;100.00
20455;BME280;10386;54.314;10.022;2024-03-02T09:00:43;101648.25;;;9.99;100.00
20455;BME280;10386;54.314;10.022;2024-03-02T09:03:10;101655.94;;;10.24;100.00
20455;BME280;10386;54.314;10.022;2024-03-02T09:05:37;101669.41;;;10.56;100.00
20455;BME280;10386;54.314;10.022;2024-03-02T09:08:04;101698.94;;;10.62;100.00
20455;BME280;10386;54.314;10.022;2024-03-02T09:10:31;101708.22;;;10.58;100.00
20455;BME280;10386;54.314;10.022;2024-03-02T09:13:11;101734.84;;;10.67;100.00
20455;BME280;10386;54.314;10.022;2024-03-02T09:15:38;101752.00;;;10.83;100.00
20455;BME280;10386;54.314;10.022;2024-03-02T09:18:06;101766.97;;;10.90;100.00
20455;BME280;10386;54.314;10.022;2024-03-02T09:20:33;101785.22;;;11.03;100.00
20455;BME280;10386;54.314;10.022;2024-03-02T09:23:00;101794.75;;;11.10;100.00
20455;BME280;10386;54.314;10.022;2024-03-02T09:25:27;101816.06;;;11.02;100.00
20455;BME280;10386;54.314;10.022;2024-03-02T09:27:54;101829.72;;;11.01;100.00
20455;BME280;10386;54.314;10.022;2024-03-02T09:30:20;101848.69;;;11.02;100.00
20455;BME280;10386;54.314;10.022;2024-03-02T09:32:47;101864.75;;;11.07;100.00
20455;BME280;10386;54.314;10.022;2024-03-02T09:35:16;101880.34;;;11.19;100.00
20455;BME280;10386;54.314;10.022;2024-03-02T09:37:43;101893.56;;;11.09;100.00
20455;BME280;10386;54.314;10.022;2024-03-02T09:40:10;101920.53;;;10.97;100.00
20455;BME280;10386;54.314;10.022;2024-03-02T09:42:37;101933.00;;;11.01;100.00
20455;BME280;10386;54.314;10.022;2024-03-02T09:45:05;101945.34;;;10.91;100.00
20455;BME280;10386;54.314;10.022;2024-03-02T09:47:32;101953.47;;;10.91;100.00
20455;BME280;10386;54.314;10.022;2024-03-02T09:49:59;101969.00;;;10.89;100.00
20455;BME280;10386;54.314;10.022;2024-03-02T09:52:26;101993.63;;;10.86;100.00
20455;BME280;10386;54.314;10.022;2024-03-02T09:54:52;102001.09;;;10.98;100.00
20455;BME280;10386;54.314;10.022;2024-03-02T09:57:19;102014.94;;;10.94;100.00
20455;BME280;10386;54.314;10.022;2024-03-02T09:59:46;102019.47;;;11.10;100.00
20455;BME280;10386;54.314;10.022;2024-03-02T10:02:13;102028.09;;;11.18;100.00
20455;BME280;10386;54.314;10.022;2024-03-02T10:04:40;102035.19;;;11.20;100.00
20455;BME280;10386;54.314;10.022;2024-03-02T10:07:15;102052.47;;;11.19;100.00
20455;BME280;10386;54.314;10.022;2024-03-02T10:09:43;102056.97;;;11.36;100.00
20455;BME280;10386;54.314;10.022;2024-03-02T10:12:12;102058.84;;;11.51;100.00
20455;BME280;10386;54.314;10.022;2024-03-02T10:14:40;102054.16;;;11.70;100.00
20455;BME280;10386;54.314;10.022;2024-03-02T10:17:11;102078.13;;;11.79;100.00
20455;BME280;10386;54.314;10.022;2024-03-02T10:19:39;102075.19;;;11.99;100.00
20455;BME280;10386;54.314;10.022;2024-03-02T10:22:07;102082.63;;;12.11;100.00
20455;BME280;10386;54.314;10.022;2024-03-02T10:24:42;102090.34;;;12.18;100.00
20455;BME280;10386;54.314;10.022;2024-03-02T10:27:31;102104.13;;;12.31;100.00
20455;BME280;10386;54.314;10.022;2024-03-02T10:30:03;102123.63;;;12.23;100.00
20455;BME280;10386;54.314;10.022;2024-03-02T10:32:32;102124.66;;;12.51;100.00
20455;BME280;10386;54.314;10.022;2024-03-02T10:35:00;102130.28;;;12.64;100.00
20455;BME280;10386;54.314;10.022;2024-03-02T10:37:27;102143.91;;;12.48;100.00
20455;BME280;10386;54.314;10.022;2024-03-02T10:39:55;102148.44;;;12.34;100.00
20455;BME280;10386;54.314;10.022;2024-03-02T10:42:22;102147.28;;;12.38;100.00
20455;BME280;10386;54.314;10.022;2024-03-02T10:44:50;102156.84;;;12.30;100.00
20455;BME280;10386;54.314;10.022;2024-03-02T10:47:18;102155.09;;;12.29;100.00
20455;BME280;10386;54.314;10.022;2024-03-02T10:49:46;102154.13;;;12.30;100.00
20455;BME280;10386;54.314;10.022;2024-03-02T10:52:17;102159.22;;;12.36;100.00
20455;BME280;10386;54.314;10.022;2024-03-02T10:54:44;102153.22;;;12.29;100.00
20455;BME280;10386;54.314;10.022;2024-03-02T10:57:13;102169.50;;;12.46;100.00
20455;BME280;10386;54.314;10.022;2024-03-02T10:59:53;102173.00;;;12.48;100.00
20455;BME280;10386;54.314;10.022;2024-03-02T11:02:23;102167.03;;;12.57;100.00
20455;BME280;10386;54.314;10.022;2024-03-02T11:04:54;102177.75;;;12.60;100.00
20455;BME280;10386;54.314;10.022;2024-03-02T11:07:22;102177.56;;;12.63;100.00
20455;BME280;10386;54.314;10.022;2024-03-02T11:10:01;102184.25;;;12.73;100.00
20455;BME280;10386;54.314;10.022;2024-03-02T11:12:38;102177.09;;;12.86;100.00
20455;BME280;10386;54.314;10.022;2024-03-02T11:15:10;102180.28;;;12.94;100.00
20455;BME280;10386;54.314;10.022;2024-03-02T11:17:40;102176.22;;;12.85;100.00
20455;BME280;10386;54.314;10.022;2024-03-02T11:20:08;102173.81;;;13.10;100.00
20455;BME280;10386;54.314;10.022;2024-03-02T11:22:36;102164.69;;;12.96;100.00
20455;BME280;10386;54.314;10.022;2024-03-02T11:25:03;102168.84;;;12.87;100.00
20455;BME280;10386;54.314;10.022;2024-03-02T11:33:03;102143.97;;;12.62;100.00
20455;BME280;10386;54.314;10.022;2024-03-02T11:35:44;102155.47;;;12.67;100.00
20455;BME280;10386;54.314;10.022;2024-03-02T11:38:15;102154.69;;;12.81;100.00
20455;BME280;10386;54.314;10.022;2024-03-02T11:40:42;102155.03;;;12.90;100.00
20455;BME280;10386;54.314;10.022;2024-03-02T11:43:09;102141.25;;;12.78;100.00
20455;BME280;10386;54.314;10.022;2024-03-02T11:45:37;102148.25;;;12.82;100.00
20455;BME280;10386;54.314;10.022;2024-03-02T11:48:14;102141.84;;;12.67;100.00
20455;BME280;10386;54.314;10.022;2024-03-02T11:50:46;102143.72;;;12.82;100.00
20455;BME280;10386;54.314;10.022;2024-03-02T11:53:14;102152.16;;;12.93;100.00
20455;BME280;10386;54.314;10.022;2024-03-02T11:55:41;102146.59;;;12.95;100.00
20455;BME280;10386;54.314;10.022;2024-03-02T11:58:08;102144.06;;;12.76;100.00
20455;BME280;10386;54.314;10.022;2024-03-02T12:00:36;102155.38;;;12.84;100.00
20455;BME280;10386;54.314;10.022;2024-03-02T12:03:09;102152.47;;;12.87;100.00
20455;BME280;10386;54.314;10.022;2024-03-02T12:05:36;102158.19;;;12.83;100.00
20455;BME280;10386;54.314;10.022;2024-03-02T12:08:05;102169.69;;;12.88;100.00
20455;BME280;10386;54.314;10.022;2024-03-02T12:10:34;102163.66;;;12.83;100.00
20455;BME280;10386;54.314;10.022;2024-03-02T12:13:05;102158.72;;;12.89;100.00
20455;BME280;10386;54.314;10.022;2024-03-02T12:15:39;102153.53;;;12.85;100.00
20455;BME280;10386;54.314;10.022;2024-03-02T12:18:07;102156.34;;;12.99;100.00
20455;BME280;10386;54.314;10.022;2024-03-02T12:20:34;102158.09;;;13.00;100.00
20455;BME280;10386;54.314;10.022;2024-03-02T12:23:02;102159.88;;;12.85;100.00
20455;BME280;10386;54.314;10.022;2024-03-02T12:25:31;102145.13;;;12.74;100.00
20455;BME280;10386;54.314;10.022;2024-03-02T12:28:00;102155.94;;;12.75;100.00
20455;BME280;10386;54.314;10.022;2024-03-02T12:30:30;102152.69;;;12.69;100.00
20455;BME280;10386;54.314;10.022;2024-03-02T12:32:57;102151.59;;;12.71;100.00
20455;BME280;10386;54.314;10.022;2024-03-02T12:35:24;102144.34;;;12.72;100.00
20455;BME280;10386;54.314;10.022;2024-03-02T12:37:52;102140.09;;;12.66;100.00
20455;BME280;10386;54.314;10.022;2024-03-02T12:40:20;102142.22;;;12.61;100.00
20455;BME280;10386;54.314;10.022;2024-03-02T12:42:50;102143.38;;;12.57;100.00
20455;BME280;10386;54.314;10.022;2024-03-02T12:45:17;102152.09;;;12.48;100.00
20455;BME280;10386;54.314;10.022;2024-03-02T12:47:52;102147.91;;;12.72;100.00
20455;BME280;10386;54.314;10.022;2024-03-02T12:50:20;102145.97;;;12.74;100.00
20455;BME280;10386;54.314;10.022;2024-03-02T12:52:52;102142.34;;;12.60;100.00
20455;BME280;10386;54.314;10.022;2024-03-02T12:55:20;102134.34;;;12.57;100.00